Time;durP1;ratioP1;P1;durP2;ratioP2;P2;SDS_P1;SDS_P2;PMS_P1;PMS_P2;Temp;Humidity;BMP_temperature;BMP_pressure;BME280_temperature;BME280_humidity;BME280_pressure;Samples;Min_cycle;Max_cycle;Signal;HPM_P1;HPM_P2
2023/07/03 00:00:31;;;;;;;3.15;2.60;;;;;;;;;;5034227;28;20038;-72
2023/07/03 00:02:57;;;;;;;6.60;2.90;;;;;;;;;;5033412;28;20065;-71
2023/07/03 00:05:23;;;;;;;5.00;2.67;;;;;;;;;;5033518;28;20028;-71
2023/07/03 00:07:49;;;;;;;4.38;2.40;;;;;;;;;;5033626;28;20095;-71
2023/07/03 00:10:15;;;;;;;2.97;2.70;;;;;;;;;;5033876;28;20033;-71
2023/07/03 00:12:40;;;;;;;4.07;2.25;;;;;;;;;;5033579;28;20100;-71
2023/07/03 00:17:44;;;;;;;3.70;2.28;;;;;;;;;;5096860;22;20463;-74
2023/07/03 00:20:13;;;;;;;3.05;2.10;;;;;;;;;;5094241;28;20055;-75
2023/07/03 00:22:39;;;;;;;2.97;2.17;;;;;;;;;;5100775;28;20020;-74
2023/07/03 00:27:46;;;;;;;5.78;2.10;;;;;;;;;;5110551;22;20043;-74
2023/07/03 00:30:12;;;;;;;2.55;2.35;;;;;;;;;;5097972;28;20020;-71
2023/07/03 00:32:37;;;;;;;2.90;1.80;;;;;;;;;;5097766;28;20031;-72
2023/07/03 00:35:03;;;;;;;2.88;2.20;;;;;;;;;;5079311;28;20051;-76
2023/07/03 00:37:28;;;;;;;5.40;2.15;;;;;;;;;;5097605;28;20067;-74
2023/07/03 00:39:54;;;;;;;4.80;2.33;;;;;;;;;;5062538;28;20036;-74
2023/07/03 00:42:22;;;;;;;5.25;2.55;;;;;;;;;;5097556;28;20061;-74
2023/07/03 00:44:47;;;;;;;2.40;2.17;;;;;;;;;;5079732;28;20067;-74
2023/07/03 00:47:13;;;;;;;2.42;2.22;;;;;;;;;;5079175;28;20060;-73
2023/07/03 00:49:38;;;;;;;3.33;2.50;;;;;;;;;;5062760;28;20482;-73
2023/07/03 00:52:04;;;;;;;4.65;2.50;;;;;;;;;;5079188;28;20024;-75
2023/07/03 00:54:29;;;;;;;4.75;2.42;;;;;;;;;;5097287;28;20035;-73
2023/07/03 00:56:55;;;;;;;2.30;2.15;;;;;;;;;;5097042;28;20472;-73
2023/07/03 00:59:21;;;;;;;2.75;2.50;;;;;;;;;;5078814;28;20504;-72
2023/07/03 01:01:59;;;;;;;2.42;1.85;;;;;;;;;;5097380;28;20023;-73
2023/07/03 01:04:34;;;;;;;3.90;2.67;;;;;;;;;;5096566;28;20037;-73
2023/07/03 01:07:01;;;;;;;3.33;2.72;;;;;;;;;;5096824;28;20020;-73
2023/07/03 01:09:31;;;;;;;4.07;2.40;;;;;;;;;;5079249;28;20047;-73
2023/07/03 01:11:57;;;;;;;3.10;2.80;;;;;;;;;;5062746;28;20052;-73
2023/07/03 01:14:23;;;;;;;3.42;2.70;;;;;;;;;;5058889;28;20032;-74
2023/07/03 01:16:49;;;;;;;5.05;2.80;;;;;;;;;;5076663;28;20024;-74
2023/07/03 01:19:19;;;;;;;2.92;2.63;;;;;;;;;;5076909;28;20111;-74
2023/07/03 01:21:52;;;;;;;3.47;2.25;;;;;;;;;;5058932;28;20020;-74
2023/07/03 01:24:29;;;;;;;2.90;2.05;;;;;;;;;;5059527;28;20032;-74
2023/07/03 01:26:55;;;;;;;6.20;2.53;;;;;;;;;;5096420;28;20063;-74
2023/07/03 01:29:21;;;;;;;4.20;3.22;;;;;;;;;;5078296;28;20027;-73
2023/07/03 01:31:47;;;;;;;6.43;2.83;;;;;;;;;;5096785;28;20035;-74
2023/07/03 01:34:13;;;;;;;3.42;3.05;;;;;;;;;;5096919;28;20027;-74
2023/07/03 01:36:38;;;;;;;3.38;2.83;;;;;;;;;;5078774;28;20032;-75
2023/07/03 01:39:04;;;;;;;4.53;3.13;;;;;;;;;;5078763;28;20028;-72
2023/07/03 01:41:30;;;;;;;4.53;2.67;;;;;;;;;;5096568;28;20036;-72
2023/07/03 01:43:55;;;;;;;3.53;2.65;;;;;;;;;;5078437;28;20040;-72
2023/07/03 01:46:22;;;;;;;3.25;2.95;;;;;;;;;;5096805;28;20063;-71
2023/07/03 01:48:47;;;;;;;2.70;2.50;;;;;;;;;;5077943;28;20467;-71
2023/07/03 01:51:16;;;;;;;3.45;2.40;;;;;;;;;;5096467;28;20027;-71
2023/07/03 01:53:41;;;;;;;4.43;2.88;;;;;;;;;;5061592;28;20039;-71
2023/07/03 01:56:08;;;;;;;3.13;2.58;;;;;;;;;;5096303;28;20031;-71
2023/07/03 01:58:37;;;;;;;2.90;2.70;;;;;;;;;;5077723;28;20487;-72
2023/07/03 02:01:05;;;;;;;2.80;2.60;;;;;;;;;;5077978;28;20490;-72
2023/07/03 02:03:43;;;;;;;2.47;2.28;;;;;;;;;;5077819;28;20124;-72
2023/07/03 02:06:20;;;;;;;2.85;2.65;;;;;;;;;;5096227;28;20407;-72
2023/07/03 02:08:48;;;;;;;3.20;2.90;;;;;;;;;;5077577;28;20467;-73
2023/07/03 02:11:16;;;;;;;3.85;3.03;;;;;;;;;;5079445;28;20099;-73
2023/07/03 02:13:44;;;;;;;4.07;2.80;;;;;;;;;;5084284;28;20035;-73
2023/07/03 02:16:10;;;;;;;4.18;3.20;;;;;;;;;;5077690;28;20407;-75
2023/07/03 02:18:36;;;;;;;4.30;2.83;;;;;;;;;;5077647;28;20053;-75
2023/07/03 02:21:05;;;;;;;4.00;3.33;;;;;;;;;;5066923;28;20020;-75
2023/07/03 02:23:31;;;;;;;7.15;3.38;;;;;;;;;;5092933;28;20481;-75
2023/07/03 02:25:56;;;;;;;5.53;3.00;;;;;;;;;;5090250;28;20051;-75
2023/07/03 02:28:24;;;;;;;2.38;2.20;;;;;;;;;;5067474;28;20078;-75
2023/07/03 02:30:50;;;;;;;2.83;2.63;;;;;;;;;;5095380;28;20029;-75
2023/07/03 02:33:15;;;;;;;5.15;2.63;;;;;;;;;;5093650;28;20388;-76
2023/07/03 02:35:41;;;;;;;2.97;2.67;;;;;;;;;;5094866;28;20032;-75
2023/07/03 02:38:09;;;;;;;5.05;2.60;;;;;;;;;;5067709;23;20083;-75
2023/07/03 02:40:43;;;;;;;5.40;3.05;;;;;;;;;;5060896;23;20061;-75
2023/07/03 02:43:09;;;;;;;3.50;3.28;;;;;;;;;;5069548;28;20040;-75
2023/07/03 02:45:41;;;;;;;6.82;2.70;;;;;;;;;;5053735;28;20048;-75
2023/07/03 02:48:08;;;;;;;5.05;2.67;;;;;;;;;;5110847;22;20049;-75
2023/07/03 02:50:38;;;;;;;6.25;2.95;;;;;;;;;;5058223;28;20040;-75
2023/07/03 02:53:04;;;;;;;3.25;2.33;;;;;;;;;;5056621;28;20498;-74
2023/07/03 02:55:30;;;;;;;2.75;2.28;;;;;;;;;;5056609;28;20499;-74
2023/07/03 02:57:57;;;;;;;2.67;2.47;;;;;;;;;;5074442;28;20012;-74
2023/07/03 03:00:23;;;;;;;2.78;2.58;;;;;;;;;;5040162;28;20035;-75
2023/07/03 03:02:49;;;;;;;3.15;2.95;;;;;;;;;;5056432;28;20025;-76
2023/07/03 03:05:14;;;;;;;5.07;2.85;;;;;;;;;;5040068;28;20369;-75
2023/07/03 03:07:41;;;;;;;3.75;2.60;;;;;;;;;;5074212;28;20424;-75
2023/07/03 03:10:07;;;;;;;4.15;2.75;;;;;;;;;;5074626;28;20056;-74
2023/07/03 03:12:32;;;;;;;4.22;2.70;;;;;;;;;;5074149;28;20124;-74
2023/07/03 03:14:58;;;;;;;6.75;3.03;;;;;;;;;;5056296;28;20111;-74
2023/07/03 03:17:23;;;;;;;3.92;2.78;;;;;;;;;;5056070;28;20273;-74
2023/07/03 03:19:49;;;;;;;4.90;2.97;;;;;;;;;;5039886;28;20032;-74
2023/07/03 03:22:14;;;;;;;3.45;2.80;;;;;;;;;;5056023;28;20032;-73
2023/07/03 03:24:40;;;;;;;4.45;3.47;;;;;;;;;;5055991;28;20055;-74
2023/07/03 03:27:06;;;;;;;4.50;3.58;;;;;;;;;;5056026;28;20067;-73
2023/07/03 03:29:32;;;;;;;3.90;3.03;;;;;;;;;;5056880;28;20033;-72
2023/07/03 03:31:58;;;;;;;4.03;2.67;;;;;;;;;;5073736;28;20028;-74
2023/07/03 03:34:23;;;;;;;3.33;3.00;;;;;;;;;;5074313;28;20040;-74
2023/07/03 03:36:50;;;;;;;4.07;2.83;;;;;;;;;;5074252;28;20078;-73
2023/07/03 03:39:15;;;;;;;3.05;2.63;;;;;;;;;;5074122;28;20463;-73
2023/07/03 03:41:41;;;;;;;5.38;2.63;;;;;;;;;;5056147;28;20052;-72
2023/07/03 03:44:09;;;;;;;6.57;3.28;;;;;;;;;;5056085;28;20029;-73
2023/07/03 03:46:34;;;;;;;3.00;2.70;;;;;;;;;;5039544;28;20030;-73
2023/07/03 03:49:00;;;;;;;6.95;3.30;;;;;;;;;;5059494;28;20537;-72
2023/07/03 03:51:26;;;;;;;6.47;3.30;;;;;;;;;;5072095;28;20024;-73
2023/07/03 03:53:51;;;;;;;4.25;3.60;;;;;;;;;;5071227;28;20033;-74
2023/07/03 03:56:19;;;;;;;6.20;3.92;;;;;;;;;;5072296;28;20020;-73
2023/07/03 03:58:44;;;;;;;4.30;3.90;;;;;;;;;;5072444;28;20032;-75
2023/07/03 04:01:10;;;;;;;9.70;4.90;;;;;;;;;;5072303;28;20465;-74
2023/07/03 04:03:35;;;;;;;4.90;4.32;;;;;;;;;;5072462;28;20036;-73
2023/07/03 04:06:00;;;;;;;4.43;3.63;;;;;;;;;;5072836;28;20013;-73
2023/07/03 04:08:26;;;;;;;6.95;4.25;;;;;;;;;;5072263;28;20077;-73
2023/07/03 04:10:51;;;;;;;4.85;4.35;;;;;;;;;;5072867;28;20361;-73
2023/07/03 04:13:17;;;;;;;4.85;3.97;;;;;;;;;;5074135;28;20012;-71
2023/07/03 04:16:08;;;;;;;5.28;3.88;;;;;;;;;;5073690;28;20040;-74
2023/07/03 04:18:34;;;;;;;4.97;4.20;;;;;;;;;;5072688;28;20044;-73
2023/07/03 04:20:59;;;;;;;8.07;3.85;;;;;;;;;;5071161;28;20036;-71
2023/07/03 04:23:25;;;;;;;4.28;3.83;;;;;;;;;;5072833;28;20021;-71
2023/07/03 04:25:51;;;;;;;6.50;3.88;;;;;;;;;;5073145;28;20028;-71
2023/07/03 04:28:18;;;;;;;6.18;4.07;;;;;;;;;;5072870;28;20012;-65
2023/07/03 04:30:44;;;;;;;7.63;3.92;;;;;;;;;;5071212;28;20499;-65
2023/07/03 04:33:09;;;;;;;4.20;3.85;;;;;;;;;;5071675;28;20016;-65
2023/07/03 04:35:36;;;;;;;4.57;4.15;;;;;;;;;;5073432;28;20438;-64
2023/07/03 04:38:01;;;;;;;5.22;4.38;;;;;;;;;;5070466;28;20451;-64
2023/07/03 04:40:27;;;;;;;5.82;4.28;;;;;;;;;;5071437;28;20021;-65
2023/07/03 04:42:52;;;;;;;6.25;3.97;;;;;;;;;;5072867;28;20070;-66
2023/07/03 04:45:18;;;;;;;6.47;4.03;;;;;;;;;;5073165;28;20029;-65
2023/07/03 04:47:43;;;;;;;5.28;4.40;;;;;;;;;;5072528;28;20450;-66
2023/07/03 04:50:10;;;;;;;3.97;3.30;;;;;;;;;;5072248;28;20037;-65
2023/07/03 04:52:38;;;;;;;5.65;3.88;;;;;;;;;;5073221;28;20032;-65
2023/07/03 04:55:04;;;;;;;5.57;4.22;;;;;;;;;;5073061;28;20039;-61
2023/07/03 04:57:29;;;;;;;3.60;3.33;;;;;;;;;;5073044;28;20032;-62
2023/07/03 04:59:55;;;;;;;4.32;3.92;;;;;;;;;;5069616;23;20036;-66
2023/07/03 05:02:21;;;;;;;5.30;3.88;;;;;;;;;;5072355;28;20044;-66
2023/07/03 05:04:46;;;;;;;5.85;4.28;;;;;;;;;;5073396;28;20029;-66
2023/07/03 05:07:17;;;;;;;4.10;3.80;;;;;;;;;;5076652;28;20044;-66
2023/07/03 05:09:42;;;;;;;;;;;;;;;;;;5077394;28;20130;-62
2023/07/03 05:12:09;;;;;;;6.03;3.97;;;;;;;;;;5076893;28;19951;-66
2023/07/03 05:14:35;;;;;;;8.23;4.00;;;;;;;;;;5076002;28;20275;-62
2023/07/03 05:17:02;;;;;;;5.18;4.18;;;;;;;;;;5075639;28;20443;-62
2023/07/03 05:19:27;;;;;;;6.28;4.00;;;;;;;;;;5076381;28;20074;-66
2023/07/03 05:21:53;;;;;;;8.52;4.10;;;;;;;;;;5075970;28;20032;-66
2023/07/03 05:24:18;;;;;;;4.72;3.80;;;;;;;;;;5058268;28;20091;-69
2023/07/03 05:26:44;;;;;;;4.65;4.25;;;;;;;;;;5076767;28;20038;-68
2023/07/03 05:29:09;;;;;;;6.75;4.32;;;;;;;;;;5076031;28;20487;-69
2023/07/03 05:31:35;;;;;;;6.93;4.30;;;;;;;;;;5088824;28;20028;-68
2023/07/03 05:34:01;;;;;;;5.07;4.50;;;;;;;;;;5096394;28;20028;-69
2023/07/03 05:36:26;;;;;;;7.35;4.20;;;;;;;;;;5076348;28;20468;-70
2023/07/03 05:38:52;;;;;;;9.63;4.38;;;;;;;;;;5075005;28;20073;-68
2023/07/03 05:41:18;;;;;;;6.03;4.50;;;;;;;;;;5075724;28;20032;-68
2023/07/03 05:43:43;;;;;;;6.85;4.72;;;;;;;;;;5074336;28;20025;-68
2023/07/03 05:46:09;;;;;;;5.43;4.90;;;;;;;;;;5074722;28;20568;-68
2023/07/03 05:48:34;;;;;;;9.70;7.80;;;;;;;;;;5075912;28;20410;-63
2023/07/03 05:51:00;;;;;;;8.77;6.82;;;;;;;;;;5075391;28;20028;-62
2023/07/03 05:53:25;;;;;;;8.55;7.13;;;;;;;;;;5072367;28;20040;-62
2023/07/03 05:55:57;;;;;;;7.75;6.07;;;;;;;;;;5064461;28;20162;-63
2023/07/03 05:58:23;;;;;;;9.05;6.05;;;;;;;;;;5053881;28;20032;-62
2023/07/03 06:00:48;;;;;;;7.40;6.10;;;;;;;;;;5075277;28;20110;-65
2023/07/03 06:03:14;;;;;;;7.05;5.32;;;;;;;;;;5076811;28;20040;-64
2023/07/03 06:05:42;;;;;;;7.90;5.15;;;;;;;;;;5076691;28;20243;-64
2023/07/03 06:08:07;;;;;;;8.52;3.97;;;;;;;;;;5095002;28;20042;-64
2023/07/03 06:10:32;;;;;;;6.57;4.40;;;;;;;;;;5076350;28;20528;-64
2023/07/03 06:12:58;;;;;;;5.38;4.22;;;;;;;;;;5093884;28;20043;-64
2023/07/03 06:15:23;;;;;;;5.72;4.00;;;;;;;;;;5075917;28;20039;-64
2023/07/03 06:17:49;;;;;;;2.75;2.08;;;;;;;;;;5093049;28;20127;-63
2023/07/03 06:20:15;;;;;;;4.35;3.95;;;;;;;;;;5093624;28;20692;-63
2023/07/03 06:22:41;;;;;;;5.65;4.28;;;;;;;;;;5093311;28;20432;-64
2023/07/03 06:25:06;;;;;;;4.00;3.38;;;;;;;;;;5093356;28;20363;-63
2023/07/03 06:27:32;;;;;;;3.88;3.58;;;;;;;;;;5093109;28;20109;-64
2023/07/03 06:29:58;;;;;;;4.80;2.95;;;;;;;;;;5074642;28;20027;-64
2023/07/03 06:32:23;;;;;;;3.75;3.42;;;;;;;;;;5074540;28;20036;-63
2023/07/03 06:34:48;;;;;;;4.63;3.30;;;;;;;;;;5092345;28;20028;-64
2023/07/03 06:37:14;;;;;;;4.53;3.50;;;;;;;;;;5092163;28;20024;-64
2023/07/03 06:39:39;;;;;;;5.80;3.85;;;;;;;;;;5074039;28;20028;-63
2023/07/03 06:42:06;;;;;;;4.10;3.70;;;;;;;;;;5074839;28;20076;-63
2023/07/03 06:44:36;;;;;;;3.55;3.25;;;;;;;;;;5075908;28;20024;-70
2023/07/03 06:47:02;;;;;;;5.13;3.60;;;;;;;;;;5076457;28;20036;-63
2023/07/03 06:49:40;;;;;;;6.68;3.53;;;;;;;;;;5094570;28;20089;-63
2023/07/03 06:52:06;;;;;;;4.38;3.38;;;;;;;;;;5094575;28;20117;-63
2023/07/03 06:54:31;;;;;;;6.43;3.20;;;;;;;;;;5093411;28;20032;-63
2023/07/03 06:56:57;;;;;;;4.32;3.10;;;;;;;;;;5093281;28;20098;-64
2023/07/03 06:59:22;;;;;;;5.72;3.17;;;;;;;;;;5074990;28;20120;-63
2023/07/03 07:01:47;;;;;;;3.72;3.22;;;;;;;;;;5093312;28;20038;-64
2023/07/03 07:04:14;;;;;;;5.18;3.70;;;;;;;;;;5093181;28;20028;-63
2023/07/03 07:06:40;;;;;;;3.80;3.47;;;;;;;;;;5093230;28;20051;-63
2023/07/03 07:09:05;;;;;;;4.13;3.55;;;;;;;;;;5093193;28;20059;-63
2023/07/03 07:11:33;;;;;;;5.05;3.45;;;;;;;;;;5093130;28;20399;-63
2023/07/03 07:13:59;;;;;;;3.03;2.83;;;;;;;;;;5075056;28;20054;-63
2023/07/03 07:16:32;;;;;;;3.50;3.08;;;;;;;;;;5093071;28;20060;-63
2023/07/03 07:19:01;;;;;;;4.93;3.20;;;;;;;;;;5093069;28;20028;-63
2023/07/03 07:21:32;;;;;;;5.03;3.38;;;;;;;;;;5093124;28;20035;-63
2023/07/03 07:23:59;;;;;;;4.38;3.30;;;;;;;;;;5075036;28;20460;-69
2023/07/03 07:26:37;;;;;;;3.00;1.88;;;;;;;;;;5094283;28;20035;-69
2023/07/03 07:29:03;;;;;;;1.75;1.63;;;;;;;;;;5093031;28;20165;-63
2023/07/03 07:31:36;;;;;;;2.03;1.80;;;;;;;;;;5075308;28;20118;-63
2023/07/03 07:34:03;;;;;;;2.45;2.20;;;;;;;;;;5093041;28;20039;-69
2023/07/03 07:36:34;;;;;;;5.35;2.88;;;;;;;;;;5093798;28;20020;-69
2023/07/03 07:39:00;;;;;;;3.75;2.97;;;;;;;;;;5093326;28;20028;-71
2023/07/03 07:41:26;;;;;;;3.00;2.65;;;;;;;;;;5092588;28;20035;-71
2023/07/03 07:43:51;;;;;;;3.22;2.92;;;;;;;;;;5092551;28;20020;-70
2023/07/03 07:46:18;;;;;;;5.78;3.10;;;;;;;;;;5092584;28;20502;-70
2023/07/03 07:48:46;;;;;;;4.60;3.33;;;;;;;;;;5092472;28;20039;-70
2023/07/03 07:51:13;;;;;;;3.08;2.15;;;;;;;;;;5074386;28;20032;-63
2023/07/03 07:53:38;;;;;;;4.20;3.35;;;;;;;;;;5075359;28;20493;-64
2023/07/03 07:56:05;;;;;;;4.35;3.10;;;;;;;;;;5092840;28;20099;-64
2023/07/03 07:58:30;;;;;;;4.50;3.40;;;;;;;;;;5092379;28;20470;-64
2023/07/03 08:00:58;;;;;;;5.07;3.08;;;;;;;;;;5092231;28;20048;-64
2023/07/03 08:03:24;;;;;;;3.38;3.10;;;;;;;;;;5092306;28;20028;-64
2023/07/03 08:05:54;;;;;;;3.88;3.58;;;;;;;;;;5057604;28;20039;-63
2023/07/03 08:08:20;;;;;;;3.25;2.67;;;;;;;;;;5074210;28;20020;-60
2023/07/03 08:10:55;;;;;;;3.80;2.97;;;;;;;;;;5092261;28;20077;-61
2023/07/03 08:13:20;;;;;;;4.55;2.78;;;;;;;;;;5092208;28;20051;-62
2023/07/03 08:15:46;;;;;;;3.83;2.47;;;;;;;;;;5074158;28;20094;-62
2023/07/03 08:18:12;;;;;;;6.70;3.50;;;;;;;;;;5092356;28;20062;-62
2023/07/03 08:20:37;;;;;;;3.63;3.17;;;;;;;;;;5092457;28;20028;-62
2023/07/03 08:23:03;;;;;;;4.18;3.08;;;;;;;;;;5074676;28;20507;-61
2023/07/03 08:25:28;;;;;;;3.80;3.03;;;;;;;;;;5092354;28;20032;-62
2023/07/03 08:27:53;;;;;;;5.05;2.85;;;;;;;;;;5092357;28;20020;-61
2023/07/03 08:30:21;;;;;;;3.03;2.72;;;;;;;;;;5074199;28;20032;-61
2023/07/03 08:32:47;;;;;;;4.30;2.80;;;;;;;;;;5092106;28;20368;-61
2023/07/03 08:35:12;;;;;;;2.72;2.53;;;;;;;;;;5057291;28;20324;-61
2023/07/03 08:37:38;;;;;;;4.07;2.55;;;;;;;;;;5092070;28;20039;-61
2023/07/03 08:40:05;;;;;;;3.38;3.08;;;;;;;;;;5092620;28;20024;-62
2023/07/03 08:42:35;;;;;;;3.35;3.05;;;;;;;;;;5096009;28;20067;-62
2023/07/03 08:45:01;;;;;;;3.33;3.03;;;;;;;;;;5077796;28;20062;-62
2023/07/03 08:47:28;;;;;;;4.10;3.70;;;;;;;;;;5077880;28;20036;-62
2023/07/03 08:49:54;;;;;;;9.48;3.85;;;;;;;;;;5096771;28;20024;-62
2023/07/03 08:52:25;;;;;;;4.20;2.97;;;;;;;;;;5096817;28;20146;-62
2023/07/03 08:54:51;;;;;;;2.95;2.10;;;;;;;;;;5091925;28;20181;-62
2023/07/03 08:57:17;;;;;;;5.80;4.25;;;;;;;;;;5088508;28;20020;-62
2023/07/03 08:59:42;;;;;;;3.38;2.65;;;;;;;;;;5060221;28;20117;-62
2023/07/03 09:02:29;;;;;;;2.78;1.88;;;;;;;;;;5056985;28;20029;-63
2023/07/03 09:05:01;;;;;;;7.63;5.00;;;;;;;;;;5056801;28;20130;-62
2023/07/03 09:07:37;;;;;;;9.13;4.80;;;;;;;;;;5054338;28;20029;-62
2023/07/03 09:10:06;;;;;;;4.75;3.83;;;;;;;;;;5067429;28;20025;-62
2023/07/03 09:12:34;;;;;;;8.00;5.03;;;;;;;;;;5056816;28;20037;-62
2023/07/03 09:15:06;;;;;;;9.65;5.13;;;;;;;;;;5066076;28;20064;-64
2023/07/03 09:17:31;;;;;;;7.78;5.53;;;;;;;;;;5065509;28;20131;-62
2023/07/03 09:19:57;;;;;;;8.00;5.20;;;;;;;;;;5066900;28;20123;-62
2023/07/03 09:22:25;;;;;;;9.70;5.28;;;;;;;;;;5056651;28;20033;-62
2023/07/03 09:24:53;;;;;;;7.15;5.35;;;;;;;;;;5055051;28;20025;-62
2023/07/03 09:27:20;;;;;;;8.40;5.18;;;;;;;;;;5056461;28;20013;-64
2023/07/03 09:29:45;;;;;;;8.75;5.43;;;;;;;;;;5056363;28;20025;-62
2023/07/03 09:32:31;;;;;;;9.73;5.35;;;;;;;;;;5054744;28;20107;-62
2023/07/03 09:34:57;;;;;;;4.63;2.53;;;;;;;;;;5066261;28;20055;-64
2023/07/03 09:37:23;;;;;;;7.38;4.35;;;;;;;;;;5056541;28;20380;-64
2023/07/03 09:39:50;;;;;;;9.85;6.68;;;;;;;;;;5056427;28;20100;-62
2023/07/03 09:42:16;;;;;;;6.97;4.55;;;;;;;;;;5056378;28;20037;-68
2023/07/03 09:44:42;;;;;;;7.85;4.80;;;;;;;;;;5076337;23;20450;-68
2023/07/03 09:47:16;;;;;;;10.48;5.68;;;;;;;;;;5057692;28;20040;-62
2023/07/03 09:49:41;;;;;;;6.75;4.35;;;;;;;;;;5075674;28;20380;-64
2023/07/03 09:52:08;;;;;;;8.07;5.90;;;;;;;;;;5075491;28;20013;-68
2023/07/03 09:54:34;;;;;;;8.77;5.38;;;;;;;;;;5075552;28;20033;-69
2023/07/03 09:57:04;;;;;;;8.18;5.00;;;;;;;;;;5075458;28;20114;-68
2023/07/03 09:59:29;;;;;;;6.93;4.70;;;;;;;;;;5075480;28;20032;-69
2023/07/03 10:01:57;;;;;;;8.05;5.68;;;;;;;;;;5075356;28;20418;-69
2023/07/03 10:04:30;;;;;;;9.02;6.20;;;;;;;;;;5075513;28;20036;-69
2023/07/03 10:07:01;;;;;;;12.10;6.60;;;;;;;;;;5075204;28;20044;-68
2023/07/03 10:09:34;;;;;;;10.02;5.60;;;;;;;;;;5075191;28;20423;-69
2023/07/03 10:12:18;;;;;;;9.70;6.55;;;;;;;;;;5075085;28;20025;-69
2023/07/03 10:14:48;;;;;;;8.75;5.63;;;;;;;;;;5057099;28;20056;-70
2023/07/03 10:17:15;;;;;;;12.82;7.25;;;;;;;;;;5074999;28;20111;-69
2023/07/03 10:19:45;;;;;;;9.70;5.53;;;;;;;;;;5074879;28;20063;-63
2023/07/03 10:22:11;;;;;;;;;;;;;;;;;;5075398;28;20036;-63
2023/07/03 10:24:37;;;;;;;8.02;5.68;;;;;;;;;;5074930;28;19912;-63
2023/07/03 10:27:02;;;;;;;9.93;6.45;;;;;;;;;;5074764;28;20029;-63
2023/07/03 10:29:31;;;;;;;9.88;5.88;;;;;;;;;;5074773;28;20080;-63
2023/07/03 10:32:03;;;;;;;9.02;6.50;;;;;;;;;;5074688;28;20051;-63
2023/07/03 10:34:48;;;;;;;8.77;5.80;;;;;;;;;;5056374;28;20068;-63
2023/07/03 10:37:15;;;;;;;12.43;6.75;;;;;;;;;;5073641;28;20468;-62
2023/07/03 10:39:42;;;;;;;11.68;6.38;;;;;;;;;;5073600;28;20035;-63
2023/07/03 10:42:15;;;;;;;9.63;5.63;;;;;;;;;;5073838;28;20250;-63
2023/07/03 10:44:41;;;;;;;10.68;6.40;;;;;;;;;;5055063;28;20385;-63
2023/07/03 10:47:06;;;;;;;9.23;5.22;;;;;;;;;;5073374;28;20023;-63
2023/07/03 10:49:33;;;;;;;7.95;5.68;;;;;;;;;;5055455;28;20052;-63
2023/07/03 10:52:17;;;;;;;6.82;4.57;;;;;;;;;;5055416;28;20037;-63
2023/07/03 10:54:45;;;;;;;7.05;5.38;;;;;;;;;;5073166;28;20107;-63
2023/07/03 10:57:16;;;;;;;8.90;5.00;;;;;;;;;;5073223;28;20066;-63
2023/07/03 10:59:44;;;;;;;10.93;6.50;;;;;;;;;;5073137;28;20041;-61
2023/07/03 11:02:10;;;;;;;5.75;3.10;;;;;;;;;;5073195;28;20025;-62
2023/07/03 11:04:36;;;;;;;11.13;6.25;;;;;;;;;;5072926;28;20396;-63
2023/07/03 11:07:13;;;;;;;14.02;7.22;;;;;;;;;;5073245;28;20099;-62
2023/07/03 11:09:45;;;;;;;10.80;6.55;;;;;;;;;;5072966;28;20045;-61
2023/07/03 11:12:29;;;;;;;14.20;6.93;;;;;;;;;;5072904;28;20157;-62
2023/07/03 11:14:54;;;;;;;10.52;6.97;;;;;;;;;;5072831;28;20115;-62
2023/07/03 11:17:50;;;;;;;6.25;4.78;;;;;;;;;;5054948;28;20081;-62
2023/07/03 11:20:35;;;;;;;9.95;6.10;;;;;;;;;;5055114;28;20381;-62
2023/07/03 11:23:00;;;;;;;12.15;6.55;;;;;;;;;;5072641;28;20414;-62
2023/07/03 11:25:36;;;;;;;8.70;5.38;;;;;;;;;;5072726;28;20052;-63
2023/07/03 11:28:20;;;;;;;10.35;7.20;;;;;;;;;;5054710;28;20060;-62
2023/07/03 11:30:47;;;;;;;7.32;3.75;;;;;;;;;;5072947;28;20079;-62
2023/07/03 11:33:13;;;;;;;11.93;7.22;;;;;;;;;;5072552;28;20392;-62
2023/07/03 11:35:49;;;;;;;9.57;6.60;;;;;;;;;;5072479;28;20028;-62
2023/07/03 11:38:18;;;;;;;12.23;6.38;;;;;;;;;;5072498;28;20032;-62
2023/07/03 11:40:49;;;;;;;8.75;5.45;;;;;;;;;;5054501;28;20089;-62
2023/07/03 11:43:15;;;;;;;11.68;6.63;;;;;;;;;;5072406;28;20472;-62
2023/07/03 11:45:48;;;;;;;5.18;2.67;;;;;;;;;;5071982;28;20132;-61
2023/07/03 11:48:26;;;;;;;9.88;6.63;;;;;;;;;;5054490;28;20082;-62
2023/07/03 11:50:56;;;;;;;9.75;6.85;;;;;;;;;;5072328;28;20028;-62
2023/07/03 11:53:29;;;;;;;11.70;5.95;;;;;;;;;;5072236;28;20047;-62
2023/07/03 11:55:54;;;;;;;9.95;6.30;;;;;;;;;;5072324;28;20142;-61
2023/07/03 11:58:24;;;;;;;13.98;6.80;;;;;;;;;;5054357;28;20100;-62
2023/07/03 12:01:10;;;;;;;9.98;6.50;;;;;;;;;;5072338;28;20499;-70
2023/07/03 12:04:14;;;;;;;10.50;6.95;;;;;;;;;;5072950;28;20031;-61
2023/07/03 12:06:46;;;;;;;7.85;4.53;;;;;;;;;;4991214;28;20049;-61
2023/07/03 12:09:18;;;;;;;10.70;6.90;;;;;;;;;;4991577;28;20034;-61
2023/07/03 12:11:59;;;;;;;8.38;6.28;;;;;;;;;;5035308;28;20124;-61
2023/07/03 12:14:39;;;;;;;10.80;5.93;;;;;;;;;;5072599;28;20039;-63
2023/07/03 12:17:15;;;;;;;8.13;5.00;;;;;;;;;;5076735;28;20028;-71
2023/07/03 12:20:06;;;;;;;12.48;6.40;;;;;;;;;;5077022;28;20043;-70
2023/07/03 12:22:36;;;;;;;7.50;5.72;;;;;;;;;;5076194;28;20025;-69
2023/07/03 12:25:01;;;;;;;8.93;4.33;;;;;;;;;;5076005;28;20047;-69
2023/07/03 12:27:26;;;;;;;12.07;6.65;;;;;;;;;;5076058;28;20034;-70
2023/07/03 12:29:52;;;;;;;10.48;6.18;;;;;;;;;;5076026;28;20056;-70
2023/07/03 12:32:26;;;;;;;9.52;6.05;;;;;;;;;;5058230;28;20029;-69
2023/07/03 12:34:52;;;;;;;7.63;5.25;;;;;;;;;;5076074;28;20142;-69
2023/07/03 12:37:20;;;;;;;12.25;3.72;;;;;;;;;;5076175;28;20029;-70
2023/07/03 12:39:46;;;;;;;8.27;6.07;;;;;;;;;;5076214;28;20560;-70
2023/07/03 12:42:24;;;;;;;9.05;6.07;;;;;;;;;;5075937;28;20032;-69
2023/07/03 12:44:51;;;;;;;10.50;6.30;;;;;;;;;;5054563;28;20041;-70
2023/07/03 12:47:17;;;;;;;11.07;6.20;;;;;;;;;;5054842;28;20036;-70
2023/07/03 12:49:56;;;;;;;10.90;6.90;;;;;;;;;;5056205;28;20024;-70
2023/07/03 12:52:25;;;;;;;7.60;6.07;;;;;;;;;;5056742;28;20399;-69
2023/07/03 12:54:51;;;;;;;8.93;6.28;;;;;;;;;;5056695;28;20074;-69
2023/07/03 12:57:17;;;;;;;10.52;6.40;;;;;;;;;;5057321;28;20109;-69
2023/07/03 12:59:51;;;;;;;10.15;6.03;;;;;;;;;;5056701;28;20017;-69
2023/07/03 13:02:28;;;;;;;9.05;6.03;;;;;;;;;;5056225;28;20033;-69
2023/07/03 13:04:58;;;;;;;8.82;5.97;;;;;;;;;;5039524;28;20476;-69
2023/07/03 13:07:24;;;;;;;6.07;4.05;;;;;;;;;;5052854;28;20029;-69
2023/07/03 13:09:51;;;;;;;5.85;3.67;;;;;;;;;;5053303;28;20025;-69
2023/07/03 13:12:17;;;;;;;5.57;3.80;;;;;;;;;;5054385;28;20163;-69
2023/07/03 13:14:57;;;;;;;6.22;4.57;;;;;;;;;;5056188;28;20393;-69
2023/07/03 13:17:27;;;;;;;6.18;4.07;;;;;;;;;;5054624;28;20118;-70
2023/07/03 13:19:52;;;;;;;13.95;6.45;;;;;;;;;;5056214;28;20025;-70
2023/07/03 13:22:18;;;;;;;11.35;6.53;;;;;;;;;;5037673;28;20575;-70
2023/07/03 13:24:45;;;;;;;5.88;4.15;;;;;;;;;;5055561;28;20115;-64
2023/07/03 13:27:18;;;;;;;8.88;5.93;;;;;;;;;;5055587;28;20075;-64
2023/07/03 13:29:43;;;;;;;8.90;5.47;;;;;;;;;;5056034;28;20035;-64
2023/07/03 13:32:13;;;;;;;10.18;6.10;;;;;;;;;;5055851;28;20027;-64
2023/07/03 13:34:56;;;;;;;8.32;6.18;;;;;;;;;;5054647;28;20112;-64
2023/07/03 13:37:23;;;;;;;11.02;5.80;;;;;;;;;;5055861;28;20033;-64
2023/07/03 13:39:50;;;;;;;7.35;4.05;;;;;;;;;;5055557;28;20028;-64
2023/07/03 13:42:15;;;;;;;8.60;3.75;;;;;;;;;;5055697;28;20039;-61
2023/07/03 13:44:40;;;;;;;6.10;4.25;;;;;;;;;;5063648;28;20045;-64
2023/07/03 13:47:06;;;;;;;8.43;5.70;;;;;;;;;;5075854;28;20020;-64
2023/07/03 13:49:31;;;;;;;9.43;5.07;;;;;;;;;;5075589;28;20028;-64
2023/07/03 13:51:56;;;;;;;2.10;1.90;;;;;;;;;;5078253;28;20022;-64
2023/07/03 13:54:21;;;;;;;7.70;4.63;;;;;;;;;;5090453;28;20475;-64
2023/07/03 13:56:47;;;;;;;8.45;5.43;;;;;;;;;;5093489;28;20028;-64
2023/07/03 13:59:12;;;;;;;7.13;5.38;;;;;;;;;;5077147;28;20032;-64
2023/07/03 14:01:39;;;;;;;9.02;5.97;;;;;;;;;;5095099;28;20036;-64
2023/07/03 14:04:05;;;;;;;8.38;5.40;;;;;;;;;;5095354;28;20173;-64
2023/07/03 14:06:30;;;;;;;8.20;5.25;;;;;;;;;;5077544;28;20064;-64
2023/07/03 14:08:56;;;;;;;9.75;8.00;;;;;;;;;;5077524;28;20027;-64
2023/07/03 14:11:22;;;;;;;8.02;4.55;;;;;;;;;;5077233;28;20012;-64
2023/07/03 14:13:49;;;;;;;10.63;5.72;;;;;;;;;;5095360;28;20035;-64
2023/07/03 14:16:15;;;;;;;8.80;5.97;;;;;;;;;;5077264;28;20028;-66
2023/07/03 14:18:40;;;;;;;6.90;5.22;;;;;;;;;;5077372;28;20074;-67
2023/07/03 14:21:08;;;;;;;7.85;5.70;;;;;;;;;;5095518;28;20032;-67
2023/07/03 14:23:33;;;;;;;9.20;5.65;;;;;;;;;;5095264;28;20046;-67
2023/07/03 14:26:12;;;;;;;10.13;6.20;;;;;;;;;;5096012;28;20035;-67
2023/07/03 14:28:40;;;;;;;7.30;4.93;;;;;;;;;;5095804;28;20515;-67
2023/07/03 14:31:10;;;;;;;9.00;5.47;;;;;;;;;;5077374;28;20489;-67
2023/07/03 14:33:49;;;;;;;8.45;5.75;;;;;;;;;;5080996;22;20140;-70
2023/07/03 14:36:14;;;;;;;8.35;5.97;;;;;;;;;;5032591;28;20046;-70
2023/07/03 14:38:42;;;;;;;7.65;5.15;;;;;;;;;;5033821;28;20100;-70
2023/07/03 14:41:08;;;;;;;10.48;5.90;;;;;;;;;;5035414;28;20128;-72
2023/07/03 14:43:33;;;;;;;8.93;5.10;;;;;;;;;;5034345;28;20101;-70
2023/07/03 14:45:58;;;;;;;9.93;5.30;;;;;;;;;;5033045;28;20041;-71
2023/07/03 14:48:24;;;;;;;9.10;5.70;;;;;;;;;;5032889;28;20104;-70
2023/07/03 14:50:51;;;;;;;9.85;5.30;;;;;;;;;;5015668;28;20026;-70
2023/07/03 14:53:16;;;;;;;4.72;3.00;;;;;;;;;;5032978;28;20082;-70